createdAt,value
2022-09-30T00:01:29.308Z,94928.69
2022-09-30T00:03:57.296Z,94934.13
2022-09-30T00:06:27.540Z,94937.97
2022-09-30T00:08:54.737Z,94931.22
2022-09-30T00:11:25.867Z,94939.56
2022-09-30T00:13:55.823Z,94937.00
2022-09-30T00:16:24.824Z,94945.00
2022-09-30T00:18:56.447Z,94935.63
2022-09-30T00:21:24.485Z,94942.31
2022-09-30T00:23:51.929Z,94940.94
2022-09-30T00:26:22.179Z,94944.13
2022-09-30T00:28:54.834Z,94950.16
2022-09-30T00:31:22.806Z,94942.94
2022-09-30T00:34:07.362Z,94953.41
2022-09-30T00:36:50.088Z,94950.38
2022-09-30T00:39:23.872Z,94952.41
2022-09-30T00:41:54.208Z,94957.28
2022-09-30T00:44:53.631Z,94948.50
2022-09-30T00:47:42.513Z,94957.31
2022-09-30T00:50:15.443Z,94955.75
2022-09-30T00:52:48.485Z,94962.22
2022-09-30T00:55:27.964Z,94961.69
2022-09-30T00:57:56.428Z,94957.03
2022-09-30T01:00:23.120Z,94954.50
2022-09-30T01:02:50.140Z,94956.72
2022-09-30T01:05:20.549Z,94961.19
2022-09-30T01:07:48.063Z,94964.22
2022-09-30T01:10:14.966Z,94976.91
2022-09-30T01:12:41.823Z,94968.41
2022-09-30T01:15:09.737Z,94972.56
2022-09-30T01:17:49.708Z,94972.25
2022-09-30T01:20:52.148Z,94974.66
2022-09-30T01:23:53.298Z,94969.22
2022-09-30T01:27:00.855Z,94964.03
2022-09-30T01:29:52.792Z,94960.19
2022-09-30T01:32:45.743Z,94963.19
2022-09-30T01:35:24.639Z,94966.28
2022-09-30T01:38:16.124Z,94962.41
2022-09-30T01:40:51.757Z,94965.56
2022-09-30T01:43:37.979Z,94964.09
2022-09-30T01:46:32.762Z,94959.31
2022-09-30T01:49:22.085Z,94962.84
2022-09-30T01:52:12.126Z,94967.47
2022-09-30T01:54:48.090Z,94962.03
2022-09-30T01:57:23.621Z,94957.22
2022-09-30T02:00:03.908Z,94963.78
2022-09-30T02:02:34.259Z,94962.97
2022-09-30T02:05:14.130Z,94960.75
2022-09-30T02:07:45.718Z,94959.88
2022-09-30T02:10:19.724Z,94965.66
2022-09-30T02:12:52.261Z,94962.63
2022-09-30T02:15:26.793Z,94968.75
2022-09-30T02:17:58.655Z,94975.81
2022-09-30T02:20:28.478Z,94971.97
2022-09-30T02:23:26.117Z,94976.28
2022-09-30T02:26:06.187Z,94971.78
2022-09-30T02:28:34.995Z,94980.25
2022-09-30T02:31:04.945Z,94987.00
2022-09-30T02:33:37.495Z,94974.50
2022-09-30T02:36:38.084Z,94974.75
2022-09-30T02:39:33.034Z,94974.09
2022-09-30T02:42:11.857Z,94972.00
2022-09-30T02:44:39.016Z,94968.66
2022-09-30T02:47:31.637Z,94976.50
2022-09-30T02:50:23.779Z,94970.31
2022-09-30T02:53:22.471Z,94973.34
2022-09-30T02:56:33.736Z,94971.81
2022-09-30T02:59:00.704Z,94972.47
2022-09-30T03:01:27.364Z,94969.09
2022-09-30T03:04:02.638Z,94971.63
2022-09-30T03:06:29.656Z,94974.34
2022-09-30T03:08:56.756Z,94977.19
2022-09-30T03:11:26.623Z,94979.03
2022-09-30T03:14:19.459Z,94989.38
2022-09-30T03:17:10.114Z,94980.25
2022-09-30T03:19:45.887Z,94989.22
2022-09-30T03:22:59.452Z,94993.41
2022-09-30T03:25:46.467Z,94981.66
2022-09-30T03:28:28.197Z,94993.22
2022-09-30T03:31:12.369Z,94997.16
2022-09-30T03:34:02.531Z,94995.34
2022-09-30T03:36:37.991Z,94999.34
2022-09-30T03:39:31.232Z,95000.22
2022-09-30T03:42:24.198Z,94999.22
2022-09-30T03:45:17.815Z,95006.38
2022-09-30T03:47:48.799Z,95013.41
2022-09-30T03:50:20.828Z,95014.03
2022-09-30T03:52:49.823Z,95012.22
2022-09-30T03:55:19.982Z,95013.13
2022-09-30T03:57:46.758Z,95011.94
2022-09-30T04:00:13.655Z,95014.97
2022-09-30T04:02:40.494Z,95019.50
2022-09-30T04:05:08.651Z,95024.50
2022-09-30T04:07:36.175Z,95022.50
2022-09-30T04:10:02.941Z,95040.78
2022-09-30T04:12:29.868Z,95037.69
2022-09-30T04:14:57.881Z,95041.19
2022-09-30T04:17:26.148Z,95036.09
2022-09-30T04:19:52.737Z,95036.22
2022-09-30T04:22:23.116Z,95042.53
2022-09-30T04:24:52.262Z,95041.16
2022-09-30T04:27:19.528Z,95043.38
2022-09-30T04:29:46.192Z,95043.56
2022-09-30T04:32:12.837Z,95057.97
2022-09-30T04:34:39.627Z,95048.81
2022-09-30T04:37:10.575Z,95042.75
2022-09-30T04:39:37.590Z,95049.81
2022-09-30T04:42:04.834Z,95052.66
2022-09-30T04:44:31.550Z,95062.94
2022-09-30T04:46:58.347Z,95073.09
2022-09-30T04:49:25.152Z,95065.94
2022-09-30T04:51:51.937Z,95074.69
2022-09-30T04:54:19.188Z,95072.16
2022-09-30T04:56:46.166Z,95079.41
2022-09-30T04:59:13.244Z,95074.78
2022-09-30T05:01:42.646Z,95077.91
2022-09-30T05:04:09.709Z,95070.28
2022-09-30T05:06:36.894Z,95069.19
2022-09-30T05:09:04.771Z,95059.34
2022-09-30T05:11:31.805Z,95064.97
2022-09-30T05:13:58.384Z,95059.13
2022-09-30T05:16:28.233Z,95064.88
2022-09-30T05:18:54.978Z,95064.66
2022-09-30T05:21:21.534Z,95058.34
2022-09-30T05:23:48.481Z,95072.63
2022-09-30T05:26:16.061Z,95077.03
2022-09-30T05:28:43.381Z,95072.88
2022-09-30T05:31:12.551Z,95080.81
2022-09-30T05:33:39.756Z,95090.00
2022-09-30T05:36:08.404Z,95101.38
2022-09-30T05:38:36.436Z,95103.09
2022-09-30T05:41:13.359Z,95107.88
2022-09-30T05:43:41.643Z,95105.16
2022-09-30T05:46:08.403Z,95117.28
2022-09-30T05:48:35.285Z,95115.28
2022-09-30T05:51:02.348Z,95112.06
2022-09-30T05:53:32.310Z,95117.38
2022-09-30T05:55:59.696Z,95114.25
2022-09-30T05:58:27.771Z,95122.09
2022-09-30T06:00:54.489Z,95131.09
2022-09-30T06:03:21.091Z,95129.06
2022-09-30T06:05:48.092Z,95133.00
2022-09-30T06:08:15.022Z,95132.78
2022-09-30T06:10:43.571Z,95138.03
2022-09-30T06:13:11.320Z,95140.22
2022-09-30T06:15:41.453Z,95145.88
2022-09-30T06:18:08.973Z,95143.75
2022-09-30T06:20:37.250Z,95151.72
2022-09-30T06:23:04.382Z,95150.91
2022-09-30T06:25:32.110Z,95151.22
2022-09-30T06:27:59.164Z,95159.69
2022-09-30T06:30:25.950Z,95166.72
2022-09-30T06:32:54.213Z,95177.28
2022-09-30T06:35:22.122Z,95180.25
2022-09-30T06:37:51.762Z,95177.50
2022-09-30T06:40:21.398Z,95179.28
2022-09-30T06:42:49.791Z,95189.38
2022-09-30T06:45:29.683Z,95184.84
2022-09-30T06:48:00.868Z,95189.75
2022-09-30T06:50:28.509Z,95191.56
2022-09-30T06:53:06.448Z,95202.50
2022-09-30T06:55:36.635Z,95209.22
2022-09-30T06:58:03.374Z,95207.75
2022-09-30T07:00:30.374Z,95213.94
2022-09-30T07:02:57.435Z,95211.59
2022-09-30T07:05:27.892Z,95212.53
2022-09-30T07:07:54.755Z,95213.19
2022-09-30T07:10:21.507Z,95219.63
2022-09-30T07:12:52.415Z,95220.00
2022-09-30T07:15:22.341Z,95222.00
2022-09-30T07:17:59.358Z,95227.19
2022-09-30T07:20:26.124Z,95229.97
2022-09-30T07:22:52.935Z,95227.97
2022-09-30T07:25:21.132Z,95221.44
2022-09-30T07:27:48.572Z,95224.72
2022-09-30T07:30:24.566Z,95228.59
2022-09-30T07:32:53.629Z,95222.06
2022-09-30T07:35:20.279Z,95221.94
2022-09-30T07:37:46.879Z,95228.84
2022-09-30T07:40:13.652Z,95232.28
2022-09-30T07:42:46.093Z,95231.31
2022-09-30T07:45:17.269Z,95235.97
2022-09-30T07:47:44.253Z,95241.00
2022-09-30T07:50:13.421Z,95247.28
2022-09-30T07:52:42.426Z,95251.91
2022-09-30T07:55:09.125Z,95262.72
2022-09-30T07:57:35.802Z,95257.41
2022-09-30T08:00:17.346Z,95266.25
2022-09-30T08:02:49.203Z,95253.09
2022-09-30T08:05:15.852Z,95249.91
2022-09-30T08:07:42.447Z,95254.44
2022-09-30T08:10:09.786Z,95266.34
2022-09-30T08:12:37.595Z,95257.56
2022-09-30T08:15:06.197Z,95263.53
2022-09-30T08:17:33.106Z,95263.50
2022-09-30T08:19:59.820Z,95263.91
2022-09-30T08:22:26.568Z,95261.88
2022-09-30T08:24:53.710Z,95265.38
2022-09-30T08:27:20.818Z,95280.50
2022-09-30T08:29:55.253Z,95275.50
2022-09-30T08:32:23.280Z,95271.63
2022-09-30T08:34:49.826Z,95274.38
2022-09-30T08:37:16.396Z,95281.31
2022-09-30T08:39:43.776Z,95282.47
2022-09-30T08:42:37.937Z,95278.22
2022-09-30T08:45:38.124Z,95283.38
2022-09-30T08:50:51.565Z,95275.91
2022-09-30T08:53:27.218Z,95270.38
2022-09-30T08:55:58.143Z,95274.81
2022-09-30T08:58:34.123Z,95273.38
2022-09-30T09:01:27.625Z,95270.28
2022-09-30T09:03:54.668Z,95273.41
2022-09-30T09:06:33.932Z,95287.94
2022-09-30T09:09:19.357Z,95279.84
2022-09-30T09:12:01.645Z,95283.84
2022-09-30T09:14:40.443Z,95280.63
2022-09-30T09:17:16.406Z,95281.91
2022-09-30T09:20:07.690Z,95280.97
2022-09-30T09:22:35.707Z,95282.03
2022-09-30T09:25:04.890Z,95285.84
2022-09-30T09:27:55.178Z,95283.56
2022-09-30T09:30:26.357Z,95281.41
2022-09-30T09:32:57.261Z,95273.84
2022-09-30T09:35:48.961Z,95285.28
2022-09-30T09:38:25.230Z,95281.22
2022-09-30T09:40:57.965Z,95274.00
2022-09-30T09:43:42.435Z,95271.34
2022-09-30T09:46:34.718Z,95275.72
2022-09-30T09:49:13.691Z,95271.50
2022-09-30T09:51:47.339Z,95265.44
2022-09-30T09:54:19.088Z,95262.03
2022-09-30T09:56:45.636Z,95263.31
2022-09-30T09:59:19.340Z,95268.22
2022-09-30T10:01:53.754Z,95268.22
2022-09-30T10:04:27.058Z,95266.28
2022-09-30T10:07:12.177Z,95276.63
2022-09-30T10:09:43.142Z,95271.97
2022-09-30T10:12:09.771Z,95284.91
2022-09-30T10:14:48.610Z,95283.66
2022-09-30T10:17:35.981Z,95284.34
2022-09-30T10:20:23.283Z,95291.91
2022-09-30T10:23:01.256Z,95277.69
2022-09-30T10:25:28.233Z,95281.94
2022-09-30T10:28:00.409Z,95282.97
2022-09-30T10:30:43.214Z,95288.47
2022-09-30T10:33:21.681Z,95282.41
2022-09-30T10:35:54.184Z,95285.94
2022-09-30T10:38:23.186Z,95293.47
2022-09-30T10:40:52.327Z,95287.75
2022-09-30T10:43:23.888Z,95292.38
2022-09-30T10:46:13.837Z,95282.69
2022-09-30T10:48:41.465Z,95288.13
2022-09-30T10:51:31.835Z,95290.59
2022-09-30T10:53:59.332Z,95300.97
2022-09-30T10:56:52.608Z,95294.63
2022-09-30T10:59:32.107Z,95307.72
2022-09-30T11:02:31.128Z,95305.28
2022-09-30T11:05:18.732Z,95298.78
2022-09-30T11:07:52.655Z,95305.25
2022-09-30T11:10:57.333Z,95307.69
2022-09-30T11:13:29.359Z,95315.97
2022-09-30T11:16:39.299Z,95322.38
2022-09-30T11:19:11.671Z,95316.53
2022-09-30T11:21:55.579Z,95304.16
2022-09-30T11:24:43.967Z,95309.06
2022-09-30T11:27:32.170Z,95320.53
2022-09-30T11:30:01.618Z,95323.63
2022-09-30T11:32:56.265Z,95320.28
2022-09-30T11:35:34.105Z,95319.72
2022-09-30T11:38:06.889Z,95321.06
2022-09-30T11:41:05.047Z,95323.53
2022-09-30T11:43:39.755Z,95311.53
2022-09-30T11:46:30.257Z,95306.88
2022-09-30T11:49:06.810Z,95308.06
2022-09-30T11:51:49.708Z,95302.94
2022-09-30T11:54:24.414Z,95310.94
2022-09-30T11:57:09.951Z,95311.50
2022-09-30T11:59:44.565Z,95308.16
2022-09-30T12:02:26.216Z,95309.41
2022-09-30T12:04:58.347Z,95307.19
2022-09-30T12:07:47.613Z,95296.31
2022-09-30T12:10:21.574Z,95306.00
2022-09-30T12:12:55.727Z,95298.47
2022-09-30T12:15:27.279Z,95297.56
2022-09-30T12:18:12.508Z,95290.19
2022-09-30T12:20:47.134Z,95291.41
2022-09-30T12:23:46.585Z,95298.97
2022-09-30T12:26:15.536Z,95288.16
2022-09-30T12:29:16.393Z,95285.97
2022-09-30T12:31:43.066Z,95273.41
2022-09-30T12:34:52.183Z,95284.31
2022-09-30T12:37:37.329Z,95279.78
2022-09-30T12:40:24.344Z,95276.75
2022-09-30T12:43:03.379Z,95274.56
2022-09-30T12:45:48.998Z,95276.03
2022-09-30T12:48:21.357Z,95275.59
2022-09-30T12:50:55.151Z,95290.53
2022-09-30T12:53:28.256Z,95278.41
2022-09-30T12:56:03.713Z,95277.00
2022-09-30T12:58:58.162Z,95280.44
2022-09-30T13:01:28.716Z,95277.38
2022-09-30T13:04:01.416Z,95280.69
2022-09-30T13:06:50.818Z,95276.75
2022-09-30T13:09:17.663Z,95278.19
2022-09-30T13:11:44.469Z,95270.59
2022-09-30T13:14:35.697Z,95260.13
2022-09-30T13:17:08.597Z,95271.56
2022-09-30T13:19:41.160Z,95278.09
2022-09-30T13:22:29.992Z,95275.50
2022-09-30T13:25:05.817Z,95263.53
2022-09-30T13:27:41.857Z,95260.94
2022-09-30T13:30:08.624Z,95268.72
2022-09-30T13:32:37.813Z,95254.59
2022-09-30T13:35:43.461Z,95255.00
2022-09-30T13:38:13.092Z,95246.06
2022-09-30T13:41:19.448Z,95249.22
2022-09-30T13:44:17.049Z,95253.03
2022-09-30T13:46:51.861Z,95248.13
2022-09-30T13:49:41.752Z,95243.25
2022-09-30T13:52:19.565Z,95245.44
2022-09-30T13:54:48.458Z,95242.56
2022-09-30T13:57:26.104Z,95248.56
2022-09-30T14:00:04.986Z,95236.72
2022-09-30T14:02:43.485Z,95246.38
2022-09-30T14:05:29.223Z,95242.44
2022-09-30T14:08:14.009Z,95225.78
2022-09-30T14:10:57.530Z,95242.56
2022-09-30T14:13:32.514Z,95238.34
2022-09-30T14:16:18.492Z,95235.34
2022-09-30T14:19:06.681Z,95237.78
2022-09-30T14:21:45.098Z,95238.75
2022-09-30T14:24:17.713Z,95236.66
2022-09-30T14:27:21.788Z,95240.63
2022-09-30T14:30:01.655Z,95232.00
2022-09-30T14:32:43.512Z,95234.94
2022-09-30T14:35:17.132Z,95228.75
2022-09-30T14:37:48.746Z,95227.44
2022-09-30T14:40:24.119Z,95226.56
2022-09-30T14:42:51.955Z,95226.28
2022-09-30T14:45:26.876Z,95227.53
2022-09-30T14:47:58.207Z,95231.63
2022-09-30T14:50:28.642Z,95227.53
2022-09-30T14:52:58.695Z,95234.09
2022-09-30T14:55:30.708Z,95231.88
2022-09-30T14:58:31.224Z,95228.72
2022-09-30T15:01:13.038Z,95224.97
2022-09-30T15:03:43.266Z,95224.56
2022-09-30T15:06:31.142Z,95222.09
2022-09-30T15:09:05.339Z,95228.69
2022-09-30T15:11:39.363Z,95224.88
2022-09-30T15:14:15.481Z,95223.75
2022-09-30T15:16:53.656Z,95220.09
2022-09-30T15:19:26.158Z,95220.91
2022-09-30T15:22:02.083Z,95231.22
2022-09-30T15:24:33.145Z,95218.44
2022-09-30T15:27:04.122Z,95223.38
2022-09-30T15:29:30.971Z,95228.47
2022-09-30T15:32:22.357Z,95217.13
2022-09-30T15:34:53.111Z,95223.81
2022-09-30T15:37:38.888Z,95235.22
2022-09-30T15:40:34.176Z,95235.66
2022-09-30T15:43:06.453Z,95238.41
2022-09-30T15:45:39.495Z,95243.31
2022-09-30T15:48:07.619Z,95252.03
2022-09-30T15:50:52.854Z,95247.34
2022-09-30T15:53:25.689Z,95244.63
2022-09-30T15:55:53.457Z,95247.75
2022-09-30T15:58:38.040Z,95239.31
2022-09-30T16:01:21.702Z,95253.09
2022-09-30T16:03:54.894Z,95253.06
2022-09-30T16:06:28.781Z,95250.78
2022-09-30T16:09:03.242Z,95258.44
2022-09-30T16:11:40.919Z,95257.25
2022-09-30T16:14:32.509Z,95255.00
2022-09-30T16:17:02.535Z,95254.44
2022-09-30T16:19:32.686Z,95253.31
2022-09-30T16:22:00.231Z,95261.81
2022-09-30T16:24:30.854Z,95262.19
2022-09-30T16:27:01.266Z,95278.25
2022-09-30T16:29:29.215Z,95280.91
2022-09-30T16:31:56.893Z,95276.09
2022-09-30T16:34:29.759Z,95280.22
2022-09-30T16:37:10.907Z,95274.94
2022-09-30T16:39:37.762Z,95277.94
2022-09-30T16:42:04.621Z,95294.16
2022-09-30T16:44:35.982Z,95290.72
2022-09-30T16:47:03.132Z,95289.81
2022-09-30T16:49:29.701Z,95284.19
2022-09-30T16:51:56.252Z,95283.00
2022-09-30T16:54:22.846Z,95282.88
2022-09-30T16:56:49.568Z,95281.03
2022-09-30T16:59:17.768Z,95281.69
2022-09-30T17:01:44.718Z,95276.41
2022-09-30T17:04:14.160Z,95269.75
2022-09-30T17:06:44.612Z,95278.88
2022-09-30T17:09:11.245Z,95275.59
2022-09-30T17:11:38.314Z,95270.06
2022-09-30T17:14:06.667Z,95277.56
2022-09-30T17:16:34.202Z,95265.84
2022-09-30T17:19:01.041Z,95263.38
2022-09-30T17:21:28.097Z,95266.19
2022-09-30T17:23:55.291Z,95268.84
2022-09-30T17:26:22.498Z,95270.50
2022-09-30T17:28:49.263Z,95263.59
2022-09-30T17:31:16.076Z,95252.31
2022-09-30T17:33:43.083Z,95256.38
2022-09-30T17:36:12.356Z,95245.41
2022-09-30T17:38:39.777Z,95251.09
2022-09-30T17:41:25.379Z,95262.25
2022-09-30T17:43:51.987Z,95254.69
2022-09-30T17:46:23.522Z,95260.38
2022-09-30T17:48:54.493Z,95261.03
2022-09-30T17:51:21.424Z,95263.16
2022-09-30T17:53:49.262Z,95264.94
2022-09-30T17:56:20.385Z,95268.97
2022-09-30T17:58:50.710Z,95267.69
2022-09-30T18:01:20.749Z,95256.94
2022-09-30T18:03:48.121Z,95276.28
2022-09-30T18:06:14.899Z,95274.38
2022-09-30T18:08:41.836Z,95268.75
2022-09-30T18:11:10.242Z,95274.06
2022-09-30T18:13:38.138Z,95277.78
2022-09-30T18:16:08.522Z,95267.16
2022-09-30T18:18:36.021Z,95269.91
2022-09-30T18:21:02.801Z,95260.22
2022-09-30T18:23:29.777Z,95269.06
2022-09-30T18:25:58.064Z,95263.72
2022-09-30T18:28:25.450Z,95274.03
2022-09-30T18:30:52.496Z,95276.28
2022-09-30T18:33:21.642Z,95279.50
2022-09-30T18:35:51.202Z,95278.84
2022-09-30T18:38:18.764Z,95273.38
2022-09-30T18:40:45.882Z,95272.72
2022-09-30T18:43:14.641Z,95276.72
2022-09-30T18:45:43.907Z,95280.44
2022-09-30T18:48:11.223Z,95286.25
2022-09-30T18:50:38.910Z,95284.84
2022-09-30T18:53:10.051Z,95294.34
2022-09-30T18:55:40.159Z,95299.97
2022-09-30T18:58:07.132Z,95300.59
2022-09-30T19:00:33.838Z,95281.72
2022-09-30T19:03:01.193Z,95279.44
2022-09-30T19:05:28.185Z,95299.44
2022-09-30T19:07:55.926Z,95276.25
2022-09-30T19:10:24.624Z,95269.16
2022-09-30T19:12:52.466Z,95275.44
2022-09-30T19:15:19.720Z,95260.47
2022-09-30T19:17:46.763Z,95258.53
2022-09-30T19:20:15.487Z,95270.91
2022-09-30T19:22:42.554Z,95268.81
2022-09-30T19:25:11.933Z,95259.31
2022-09-30T19:27:41.066Z,95249.16
2022-09-30T19:30:09.855Z,95260.13
2022-09-30T19:32:36.748Z,95261.06
2022-09-30T19:35:10.418Z,95252.06
2022-09-30T19:37:37.859Z,95259.31
2022-09-30T19:40:19.842Z,95251.44
2022-09-30T19:42:48.584Z,95257.88
2022-09-30T19:45:16.414Z,95260.47
2022-09-30T19:47:43.360Z,95253.38
2022-09-30T19:50:10.420Z,95257.44
2022-09-30T19:52:45.082Z,95257.94
2022-09-30T19:55:16.945Z,95246.97
2022-09-30T19:57:43.919Z,95256.00
2022-09-30T20:00:13.012Z,95254.25
2022-09-30T20:02:39.841Z,95263.13
2022-09-30T20:05:07.419Z,95260.84
2022-09-30T20:07:35.266Z,95261.50
2022-09-30T20:10:03.718Z,95261.81
2022-09-30T20:12:30.456Z,95265.53
2022-09-30T20:15:15.924Z,95263.25
2022-09-30T20:17:43.593Z,95263.25
2022-09-30T20:20:29.001Z,95269.72
2022-09-30T20:22:57.215Z,95282.28
2022-09-30T20:25:23.838Z,95284.53
2022-09-30T20:27:52.667Z,95283.41
2022-09-30T20:30:20.839Z,95280.50
2022-09-30T20:32:47.535Z,95275.50
2022-09-30T20:35:14.283Z,95264.53
2022-09-30T20:37:42.340Z,95264.88
2022-09-30T20:40:09.975Z,95259.06
2022-09-30T20:42:38.829Z,95258.88
2022-09-30T20:45:10.763Z,95249.72
2022-09-30T20:47:38.790Z,95233.59
2022-09-30T20:50:07.667Z,95231.34
2022-09-30T20:52:34.472Z,95240.53
2022-09-30T20:55:01.237Z,95225.38
2022-09-30T20:57:32.277Z,95213.75
2022-09-30T21:00:00.399Z,95203.28
2022-09-30T21:02:28.349Z,95198.94
2022-09-30T21:04:58.146Z,95211.97
2022-09-30T21:07:26.309Z,95205.22
2022-09-30T21:09:53.245Z,95210.38
2022-09-30T21:12:20.030Z,95203.09
2022-09-30T21:14:46.811Z,95199.88
2022-09-30T21:17:13.431Z,95192.50
2022-09-30T21:19:40.393Z,95179.94
2022-09-30T21:22:07.744Z,95175.56
2022-09-30T21:24:34.438Z,95169.97
2022-09-30T21:27:01.813Z,95173.22
2022-09-30T21:29:30.676Z,95167.75
2022-09-30T21:31:57.553Z,95166.94
2022-09-30T21:34:24.685Z,95182.56
2022-09-30T21:36:51.618Z,95178.69
2022-09-30T21:39:18.374Z,95175.47
2022-09-30T21:41:46.221Z,95176.75
2022-09-30T21:44:14.047Z,95167.59
2022-09-30T21:46:44.707Z,95162.72
2022-09-30T21:49:21.652Z,95160.13
2022-09-30T21:51:48.466Z,95162.69
2022-09-30T21:54:15.395Z,95152.56
2022-09-30T21:56:43.155Z,95146.41
2022-09-30T21:59:10.787Z,95152.97
2022-09-30T22:01:37.601Z,95135.25
2022-09-30T22:04:05.392Z,95137.66
2022-09-30T22:06:32.325Z,95135.06
2022-09-30T22:09:01.998Z,95136.97
2022-09-30T22:11:30.788Z,95134.25
2022-09-30T22:13:59.386Z,95142.31
2022-09-30T22:16:29.999Z,95145.19
2022-09-30T22:19:02.516Z,95153.41
2022-09-30T22:21:32.285Z,95142.31
2022-09-30T22:24:04.835Z,95146.34
2022-09-30T22:26:33.063Z,95147.00
2022-09-30T22:29:03.114Z,95150.22
2022-09-30T22:31:32.244Z,95142.97
2022-09-30T22:34:21.656Z,95133.13
2022-09-30T22:37:07.399Z,95129.75
2022-09-30T22:39:34.477Z,95135.84
2022-09-30T22:42:01.753Z,95142.59
2022-09-30T22:44:35.009Z,95141.66
2022-09-30T22:47:02.415Z,95134.25
2022-09-30T22:49:33.243Z,95136.50
2022-09-30T22:52:01.176Z,95139.59
2022-09-30T22:54:29.167Z,95122.00
2022-09-30T22:56:56.398Z,95128.28
2022-09-30T22:59:24.120Z,95126.94
2022-09-30T23:01:51.358Z,95116.66
2022-09-30T23:04:18.937Z,95124.69
2022-09-30T23:06:52.882Z,95128.81
2022-09-30T23:09:20.893Z,95121.59
2022-09-30T23:11:48.887Z,95115.31
2022-09-30T23:14:16.893Z,95119.13
2022-09-30T23:16:43.635Z,95121.88
2022-09-30T23:19:10.404Z,95112.66
2022-09-30T23:21:38.590Z,95104.41
2022-09-30T23:24:05.627Z,95102.47
2022-09-30T23:26:32.404Z,95097.81
2022-09-30T23:29:01.410Z,95104.22
2022-09-30T23:31:28.457Z,95103.28
2022-09-30T23:33:57.608Z,95107.84
2022-09-30T23:36:29.382Z,95104.34
2022-09-30T23:39:02.107Z,95098.41
2022-09-30T23:41:29.884Z,95097.06
2022-09-30T23:43:56.780Z,95089.63
2022-09-30T23:46:23.977Z,95094.19
2022-09-30T23:48:50.716Z,95083.88
2022-09-30T23:51:19.408Z,95078.78
2022-09-30T23:53:46.266Z,95065.41
2022-09-30T23:56:15.613Z,95062.69
2022-09-30T23:58:43.820Z,95072.63
